KLAF/LAF METAR and TAF weather

Enter ICAO airport designator
Station Type Date Time Source
KLAF METAR 2020/09/25 06:54 UTC NOAA

KLAF 250654Z AUTO 10SM CLR 14/12 A2997 RMK AO2 SLP145 T01390117 $


Station Type Date Time Source
KLAF Decoded METAR 2020/09/25 06:54 UTC NOAA

LAFAYETTE PURDUE UNIV AIRPORT , IN, United States (KLAF) 40-25N 86-57W 182M
Sep 25, 2020 - 02:54 AM EDT / 2020.09.25 0654 UTC
Visibility: 10 mile(s):0
Sky conditions: clear
Temperature: 57.0 F (13.9 C)
Dew Point: 53.1 F (11.7 C)
Relative Humidity: 86%
Pressure (altimeter): 29.97 in. Hg (1014 hPa)
ob: KLAF 250654Z AUTO 10SM CLR 14/12 A2997 RMK AO2 SLP145 T01390117
cycle: 7

Station Type Date Time Source
KLAF TAF 2020/09/25 06:22 UTC NOAA

TAF KLAF 250520Z 2506/2606 00000KT P6SM FEW250
FM251600 11005KT P6SM SKC
FM251800 14006KT P6SM FEW050 FEW250
FM252200 17005KT P6SM FEW060 FEW230
AMD LTD TO CLD VIS AND WIND TIL 251300

Example: see airport list